Airfield :







YOU CAN JOIN US ON...

 
LOGIN :

Register | Disclaimer

   EN    FR    IT 

 









Legend :    VFR   Marginal VFR   IFR   Intensive IFR   Very Intensive IFR
Visi :
Ceiling :
>= 8 km
>= 3000ft
5 to 8 km
1000 to 3000 ft
1500m to 5 km
500 to 1000 ft
800 to 1500m
200 to 500 ft
< 800m
< 200 ft
Symbols :   Thunderstorms  Fog  Heavy snow  Heavy precipitations  Wind > 20 kt






- Airport Elevation : 496 ft
- IATA code : YQX


CYQX - Gander

CURRENT METAR :
  • 012200Z 21008KT 20SM FEW150 BKN260 17/10 A2994 RMK AC1CI6 AC TR SLP142 DENSITY ALT 900FT

EXPIRED METARs :
  • 012100Z 22011KT 20SM FEW150 BKN260 19/10 A2992 RMK AC1CI6 SLP134 DENSITY ALT 1100FT
  • 012000Z 23012G17KT 20SM FEW035 FEW150 BKN260 20/11 A2990 RMK SC1AC1CI4 SC TR SLP127 DENSITY ALT 1300FT

TAF TAF CYQX
Valid from the 01 at 18:00 until the 02 at 18:00 UTC


011738Z 0118/0218 23015G25KT P6SM FEW030
FM020000 23010KT P6SM SKC
BECMG 0202/0204 20008KT
BECMG 0212/0214 18012KT RMK NXT FCST BY 020000Z
CZQX FIR / North America



MET'MAP, your aeronautical weather chart ! - Copyright ORBIFLY December 2007 - Disclaimer

ORBIFLY MET'MAP TEAM :

Programming & Development : Alexandra Zaïnal
Concept & original design : Baudouin d'Aumeries
Assistance for programming : Marc-Olivier Méhu
Technical & hardware support : Manuel Goepfert

Contact : metmap@orbifly.com




SOURCES & CREDITS :

   NOAA